Aeroporto :
LOGIN :

Iscrizione | Disclaimer

   EN    FR    IT 

 










Sommario :    VFR   VFR Marginale   IFR   IFR Intensivo   IFR Molto Intensivo
Visibilità : 
Base nubi : 
>= 8 km
>= 3000ft
5 / 8 km
1000 / 3000 ft
1500m / 5 km
500 / 1000 ft
800 / 1500m
200 / 500 ft
< 800m
< 200 ft
Simboli :   Temporali  Nebbia  Neve Forte  Precipitazioni Forti  Vento > 20 kt
SIGMETs :   Varie  Temporali  Ghiacco  Turbolenza  Onda orograficha  Ceneri Vulcaniche






- Altitudine del aeroporto : 1860 ft
- Codice IATA : GRX


LEGR - Granada

ULTIMO METAR :
  • 050530Z VRB01KT 4000 BR OVC002 05/05 Q1019

METARs OBSOLETI :
  • 050500Z 02003KT 340V050 8000 BKN004 05/05 Q1019
  • 050430Z AUTO 36003KT 9999 BKN003 OVC010 06/06 Q1019
  • 050400Z AUTO 36003KT 9999 BKN003 OVC008 06/06 Q1019
  • 050330Z AUTO 36003KT 8000 OVC004 06/06 Q1020
  • 050300Z AUTO VRB01KT 4500 BR BKN003 07/07 Q1020
  • 050230Z AUTO 01002KT 1000 R09/1900N BR OVC002 07/07 Q1020
  • 050200Z AUTO 33002KT 2000 BR OVC002 07/07 Q1020
  • 050130Z AUTO 31001KT 3200 BR BKN002 BKN007 07/07 Q1020
  • 050100Z AUTO VRB01KT 0550 R09/1300U FG VV004 07/07 Q1020

TAF TAF LEGR
Valido dal 05 a 06 ore il 06 a 06 ore UTC


050500Z 0506/0606 VRB02KT 9999 FEW040 TX10/0515Z TN04/0506Z
PROB30
TEMPO 0506/0508 0200 FG VV001
PROB40
TEMPO 0506/0510 2000 BR BKN005
PROB30
TEMPO 0600/0606 4000 RA BKN014



MetMap, La meteo Aeronautica in un colpo d'occhio ! - Copyright ORBIFLY Dicembre 2007 - Disclaimer

ORBIFLY MET'MAP TEAM :

Programmazione e sviluppo : Alexandra Zaïnal
Concezione : Baudouin d'Aumeries
Supporto tecnico e logistico : Manuel Goepfert
Aiuto : Marc-Olivier Méhu
Aiuto per la traduzione : Arnaldo La Scala




FONTI E CREDITI :

   NOAA